KEAU

Chippewa Valley Regional Airport

Eau Claire, Wisconsin, USA
KEAU 231728Z 2318/2418 VRB03KT P6SM SKC FM240100 00000KT P6SM BKN200 FM241200 01004KT P6SM OVC100 FM241700 36009KT P6SM OVC050
Issued Valid From Valid To
Apr-23 @ 17:28 UTC
(5 hours ago)
Apr-23 @ 18:00 UTC
(5 hours ago)
Apr-24 @ 18:00 UTC
(in 19 hours)
Apr-23 @ 18:00 to Apr-24 @ 01:00
KEAU 231728Z 2318/2418 VRB03KT P6SM SKC
Wind Visibility Clouds
Variable at 3 knots Greater than 6 miles
  • Clear skies
From Apr-24 @ 01:00 to Apr-24 @ 12:00
FM240100 00000KT P6SM BKN200
Visibility Clouds
Greater than 6 miles
  • Broken at 20,000' AGL
From Apr-24 @ 12:00 to Apr-24 @ 17:00
FM241200 01004KT P6SM OVC100
Wind Visibility Clouds
10° at 4 knots Greater than 6 miles
  • Overcast at 10,000' AGL
From Apr-24 @ 17:00 to Apr-24 @ 18:00
FM241700 36009KT P6SM OVC050
Wind Visibility Clouds
360° at 9 knots Greater than 6 miles
  • Overcast at 5,000' AGL
KEAU 231728Z 2318/2418 VRB03KT P6SM SKC FM240100 00000KT P6SM BKN200 FM241200 01004KT P6SM OVC100 FM241700 36009KT P6SM OVC050
Issued Apr-23 @ 17:28 UTC
(5 hours ago)
Valid From Apr-23 @ 18:00 UTC
(5 hours ago)
Valid To Apr-24 @ 18:00 UTC
(in 19 hours)
Apr-23 @ 18:00 - Apr-24 @ 01:00
Wind Visibility
Variable at 3 knots Greater than 6 miles
Clouds
  • Clear skies
From Apr-24 @ 01:00 - Apr-24 @ 12:00
Clouds
  • Broken at 20,000' AGL
From Apr-24 @ 12:00 - Apr-24 @ 17:00
Wind Visibility
10° at 4 knots Greater than 6 miles
Clouds
  • Overcast at 10,000' AGL
From Apr-24 @ 17:00 - Apr-24 @ 18:00
Wind Visibility
360° at 9 knots Greater than 6 miles
Clouds
  • Overcast at 5,000' AGL